createdAt,value
2023-10-09T00:03:24.288Z,16.16
2023-10-09T00:08:31.955Z,16.11
2023-10-09T00:13:33.904Z,16.29
2023-10-09T00:18:36.099Z,16.01
2023-10-09T00:23:38.490Z,16.22
2023-10-09T00:28:48.496Z,16.34
2023-10-09T00:34:09.192Z,16.50
2023-10-09T00:39:19.393Z,16.41
2023-10-09T00:44:21.279Z,16.20
2023-10-09T00:49:23.588Z,16.06
2023-10-09T00:54:42.493Z,15.73
2023-10-09T00:59:45.575Z,15.76
2023-10-09T01:05:19.850Z,15.65
2023-10-09T01:10:23.192Z,15.75
2023-10-09T01:15:37.812Z,15.91
2023-10-09T01:20:46.609Z,15.80
2023-10-09T01:25:50.751Z,15.99
2023-10-09T01:30:52.910Z,16.11
2023-10-09T01:36:00.473Z,16.08
2023-10-09T01:41:08.840Z,15.94
2023-10-09T01:46:11.970Z,16.01
2023-10-09T01:51:21.344Z,15.79
2023-10-09T01:56:23.363Z,15.37
2023-10-09T02:01:25.259Z,15.62
2023-10-09T02:06:28.407Z,15.67
2023-10-09T02:11:44.588Z,15.82
2023-10-09T02:17:18.814Z,15.56
2023-10-09T02:22:38.964Z,15.27
2023-10-09T02:28:00.532Z,15.30
2023-10-09T02:33:28.978Z,15.45
2023-10-09T02:38:34.712Z,15.58
2023-10-09T02:43:48.992Z,15.17
2023-10-09T02:49:11.018Z,15.09
2023-10-09T02:54:22.247Z,14.85
2023-10-09T02:59:24.928Z,15.13
2023-10-09T03:04:45.653Z,15.05
2023-10-09T03:09:47.947Z,15.03
2023-10-09T03:14:49.740Z,15.14
2023-10-09T03:19:51.611Z,15.21
2023-10-09T03:24:54.117Z,15.52
2023-10-09T03:29:56.281Z,15.42
2023-10-09T03:35:00.530Z,15.51
2023-10-09T03:40:21.130Z,15.29
2023-10-09T03:45:26.419Z,14.86
2023-10-09T03:50:36.563Z,15.15
2023-10-09T03:55:41.841Z,15.32
2023-10-09T04:01:08.806Z,14.86
2023-10-09T04:06:12.327Z,14.74
2023-10-09T04:11:17.761Z,14.94
2023-10-09T04:16:29.638Z,14.96
2023-10-09T04:21:31.506Z,14.96
2023-10-09T04:26:36.105Z,15.01
2023-10-09T04:31:41.066Z,15.09
2023-10-09T04:36:50.452Z,15.01
2023-10-09T04:41:53.352Z,15.06
2023-10-09T04:47:12.088Z,15.15
2023-10-09T04:52:26.698Z,15.18
2023-10-09T04:57:28.670Z,15.18
2023-10-09T05:02:37.767Z,14.95
2023-10-09T05:08:18.700Z,14.88
2023-10-09T05:13:41.735Z,15.19
2023-10-09T05:19:29.338Z,15.29
2023-10-09T05:24:43.619Z,15.37
2023-10-09T05:30:00.983Z,15.21
2023-10-09T05:35:31.084Z,14.93
2023-10-09T05:40:32.901Z,15.02
2023-10-09T05:45:53.317Z,14.62
2023-10-09T05:51:10.074Z,14.96
2023-10-09T05:56:31.327Z,14.40
2023-10-09T06:01:51.898Z,14.45
2023-10-09T06:07:14.383Z,14.67
2023-10-09T06:12:34.638Z,14.72
2023-10-09T06:17:44.867Z,15.18
2023-10-09T06:22:59.405Z,15.28
2023-10-09T06:28:02.276Z,15.50
2023-10-09T06:33:04.462Z,15.25
2023-10-09T06:38:34.810Z,14.98
2023-10-09T06:43:44.349Z,15.00
2023-10-09T06:48:47.265Z,15.35
2023-10-09T06:53:54.777Z,15.18
2023-10-09T06:59:21.331Z,15.30
2023-10-09T07:04:32.136Z,15.73
2023-10-09T07:09:43.851Z,15.42
2023-10-09T07:15:24.841Z,15.63
2023-10-09T07:20:38.551Z,16.09
2023-10-09T07:25:42.225Z,16.30
2023-10-09T07:30:44.099Z,16.47
2023-10-09T07:35:58.374Z,16.52
2023-10-09T07:41:03.150Z,16.62
2023-10-09T07:46:05.100Z,16.70
2023-10-09T07:51:13.838Z,16.85
2023-10-09T07:56:21.929Z,16.71
2023-10-09T08:01:24.133Z,16.73
2023-10-09T08:06:43.213Z,17.20
2023-10-09T08:12:25.484Z,17.22
2023-10-09T08:17:30.153Z,17.42
2023-10-09T08:22:43.942Z,18.26
2023-10-09T08:27:57.367Z,19.14
2023-10-09T08:38:09.807Z,20.13
2023-10-09T08:43:21.809Z,21.68
2023-10-09T08:48:23.595Z,22.92
2023-10-09T08:53:46.819Z,23.41
2023-10-09T08:59:06.225Z,23.99
2023-10-09T09:04:09.330Z,24.74
2023-10-09T09:09:16.584Z,25.33
2023-10-09T09:14:23.238Z,26.33
2023-10-09T09:19:33.508Z,26.74
2023-10-09T09:24:35.406Z,27.24
2023-10-09T09:29:41.048Z,27.21
2023-10-09T09:34:49.109Z,27.88
2023-10-09T09:39:55.989Z,28.25
2023-10-09T09:45:01.552Z,22.96
2023-10-09T09:50:12.704Z,23.18
2023-10-09T09:55:23.376Z,25.29
2023-10-09T10:00:44.311Z,25.83
2023-10-09T10:05:49.791Z,23.89
2023-10-09T10:10:58.725Z,23.78
2023-10-09T10:16:10.127Z,22.70
2023-10-09T10:21:27.500Z,21.73
2023-10-09T10:26:31.447Z,20.95
2023-10-09T10:32:01.718Z,19.93
2023-10-09T10:37:09.157Z,20.37
2023-10-09T10:42:31.093Z,23.41
2023-10-09T10:47:36.292Z,19.88
2023-10-09T10:52:46.199Z,19.26
2023-10-09T10:58:01.642Z,18.88
2023-10-09T11:03:14.958Z,18.37
2023-10-09T11:08:23.205Z,19.14
2023-10-09T11:13:34.570Z,18.94
2023-10-09T11:18:58.157Z,19.77
2023-10-09T11:24:20.251Z,19.22
2023-10-09T11:29:26.007Z,20.11
2023-10-09T11:34:39.024Z,20.72
2023-10-09T11:39:56.992Z,21.07
2023-10-09T11:45:05.511Z,20.74
2023-10-09T11:50:13.975Z,19.75
2023-10-09T11:55:17.568Z,21.07
2023-10-09T12:00:31.294Z,21.07
2023-10-09T12:05:34.847Z,23.41
2023-10-09T12:10:39.529Z,21.88
2023-10-09T12:15:41.540Z,22.87
2023-10-09T12:21:05.636Z,22.09
2023-10-09T12:26:15.482Z,22.64
2023-10-09T12:31:21.345Z,22.94
2023-10-09T12:36:23.462Z,22.90
2023-10-09T12:41:29.775Z,23.68
2023-10-09T12:46:38.909Z,24.32
2023-10-09T12:51:41.536Z,26.33
2023-10-09T12:56:44.073Z,25.82
2023-10-09T13:01:46.072Z,23.48
2023-10-09T13:06:48.081Z,24.07
2023-10-09T13:11:51.299Z,25.20
2023-10-09T13:17:12.280Z,27.67
2023-10-09T13:22:14.760Z,28.44
2023-10-09T13:27:22.604Z,27.42
2023-10-09T13:32:24.617Z,26.72
2023-10-09T13:37:45.442Z,30.90
2023-10-09T13:42:48.521Z,29.34
2023-10-09T13:47:50.459Z,30.98
2023-10-09T13:52:55.173Z,27.92
2023-10-09T13:57:58.693Z,25.42
2023-10-09T14:03:12.610Z,25.53
2023-10-09T14:08:33.047Z,28.09
2023-10-09T14:13:34.879Z,24.03
2023-10-09T14:18:58.016Z,25.57
2023-10-09T14:24:00.207Z,26.51
2023-10-09T14:29:02.056Z,27.05
2023-10-09T14:34:03.962Z,25.91
2023-10-09T14:39:06.029Z,23.70
2023-10-09T14:44:07.883Z,26.68
2023-10-09T14:49:15.013Z,26.58
2023-10-09T14:54:19.219Z,25.74
2023-10-09T14:59:23.338Z,27.47
2023-10-09T15:04:26.729Z,28.18
2023-10-09T15:09:32.616Z,27.54
2023-10-09T15:14:35.132Z,27.56
2023-10-09T15:19:38.064Z,28.04
2023-10-09T15:24:41.857Z,28.43
2023-10-09T15:29:46.175Z,27.68
2023-10-09T15:34:48.545Z,27.95
2023-10-09T15:39:50.996Z,27.11
2023-10-09T15:45:13.387Z,25.91
2023-10-09T15:50:16.037Z,28.28
2023-10-09T15:55:21.989Z,28.53
2023-10-09T16:00:29.898Z,29.45
2023-10-09T16:05:36.803Z,30.31
2023-10-09T16:10:38.922Z,30.62
2023-10-09T16:15:46.667Z,30.47
2023-10-09T16:20:48.641Z,30.34
2023-10-09T16:25:51.100Z,29.78
2023-10-09T16:30:53.063Z,29.38
2023-10-09T16:35:55.785Z,28.07
